sensor_id;sensor_type;location;lat;lon;timestamp;pressure;altitude;pressure_sealevel;temperature;humidity
23867;BME280;12114;53.404;-1.502;2023-05-11T00:01:31;99767.31;;;11.96;100.00
23867;BME280;12114;53.404;-1.502;2023-05-11T00:04:15;99768.91;;;11.97;100.00
23867;BME280;12114;53.404;-1.502;2023-05-11T00:06:59;99776.84;;;11.99;100.00
23867;BME280;12114;53.404;-1.502;2023-05-11T00:09:43;99842.94;;;12.05;100.00
23867;BME280;12114;53.404;-1.502;2023-05-11T00:12:27;99854.84;;;12.02;100.00
23867;BME280;12114;53.404;-1.502;2023-05-11T00:15:11;99865.22;;;12.05;100.00
23867;BME280;12114;53.404;-1.502;2023-05-11T00:17:55;99874.78;;;12.08;100.00
23867;BME280;12114;53.404;-1.502;2023-05-11T00:20:39;99886.75;;;12.09;100.00
23867;BME280;12114;53.404;-1.502;2023-05-11T00:23:23;99911.75;;;12.05;100.00
23867;BME280;12114;53.404;-1.502;2023-05-11T00:26:07;99924.81;;;12.01;100.00
23867;BME280;12114;53.404;-1.502;2023-05-11T00:28:52;99955.84;;;11.99;100.00
23867;BME280;12114;53.404;-1.502;2023-05-11T00:31:36;100025.47;;;11.99;100.00
23867;BME280;12114;53.404;-1.502;2023-05-11T00:34:20;100190.22;;;12.05;100.00
23867;BME280;12114;53.404;-1.502;2023-05-11T00:37:04;100208.06;;;12.00;100.00
23867;BME280;12114;53.404;-1.502;2023-05-11T00:39:48;100203.22;;;11.97;100.00
23867;BME280;12114;53.404;-1.502;2023-05-11T00:42:32;100227.09;;;11.98;100.00
23867;BME280;12114;53.404;-1.502;2023-05-11T00:45:17;100229.88;;;11.98;100.00
23867;BME280;12114;53.404;-1.502;2023-05-11T00:48:02;100235.44;;;11.98;100.00
23867;BME280;12114;53.404;-1.502;2023-05-11T00:50:46;100249.75;;;11.97;100.00
23867;BME280;12114;53.404;-1.502;2023-05-11T00:53:31;100264.03;;;11.95;100.00
23867;BME280;12114;53.404;-1.502;2023-05-11T00:56:16;100264.84;;;11.96;100.00
23867;BME280;12114;53.404;-1.502;2023-05-11T00:59:00;100283.91;;;11.94;100.00
23867;BME280;12114;53.404;-1.502;2023-05-11T01:01:44;100291.47;;;11.93;100.00
23867;BME280;12114;53.404;-1.502;2023-05-11T01:04:28;100301.44;;;11.94;100.00
23867;BME280;12114;53.404;-1.502;2023-05-11T01:07:19;100305.50;;;12.00;100.00
23867;BME280;12114;53.404;-1.502;2023-05-11T01:10:22;100308.84;;;12.10;100.00
23867;BME280;12114;53.404;-1.502;2023-05-11T01:16:18;100344.41;;;12.20;100.00
23867;BME280;12114;53.404;-1.502;2023-05-11T01:20:14;100347.88;;;12.13;100.00
23867;BME280;12114;53.404;-1.502;2023-05-11T01:22:55;100358.59;;;12.11;100.00
23867;BME280;12114;53.404;-1.502;2023-05-11T01:31:36;100361.75;;;12.10;100.00
23867;BME280;12114;53.404;-1.502;2023-05-11T01:34:24;100367.34;;;12.10;100.00
23867;BME280;12114;53.404;-1.502;2023-05-11T01:37:13;100371.69;;;12.11;100.00
23867;BME280;12114;53.404;-1.502;2023-05-11T01:40:02;100372.50;;;12.11;100.00
23867;BME280;12114;53.404;-1.502;2023-05-11T01:42:50;100376.53;;;12.14;100.00
23867;BME280;12114;53.404;-1.502;2023-05-11T01:45:40;100388.41;;;12.11;100.00
23867;BME280;12114;53.404;-1.502;2023-05-11T01:48:30;100391.59;;;12.09;100.00
23867;BME280;12114;53.404;-1.502;2023-05-11T01:51:18;100401.09;;;12.08;100.00
23867;BME280;12114;53.404;-1.502;2023-05-11T01:54:06;100400.44;;;12.15;100.00
23867;BME280;12114;53.404;-1.502;2023-05-11T01:56:51;100415.59;;;12.17;100.00
23867;BME280;12114;53.404;-1.502;2023-05-11T01:59:36;100418.03;;;12.19;100.00
23867;BME280;12114;53.404;-1.502;2023-05-11T02:02:23;100413.56;;;12.14;100.00
23867;BME280;12114;53.404;-1.502;2023-05-11T02:05:07;100424.03;;;12.21;100.00
23867;BME280;12114;53.404;-1.502;2023-05-11T02:07:53;100434.34;;;12.20;100.00
23867;BME280;12114;53.404;-1.502;2023-05-11T02:10:37;100439.56;;;12.22;100.00
23867;BME280;12114;53.404;-1.502;2023-05-11T02:13:23;100446.38;;;12.24;100.00
23867;BME280;12114;53.404;-1.502;2023-05-11T02:16:10;100451.13;;;12.24;100.00
23867;BME280;12114;53.404;-1.502;2023-05-11T02:18:56;100448.34;;;12.24;100.00
23867;BME280;12114;53.404;-1.502;2023-05-11T02:21:41;100444.91;;;12.30;100.00
23867;BME280;12114;53.404;-1.502;2023-05-11T02:24:27;100448.78;;;12.26;100.00
23867;BME280;12114;53.404;-1.502;2023-05-11T02:27:13;100447.94;;;12.22;100.00
23867;BME280;12114;53.404;-1.502;2023-05-11T02:29:57;100455.81;;;12.20;100.00
23867;BME280;12114;53.404;-1.502;2023-05-11T02:32:47;100452.63;;;12.18;100.00
23867;BME280;12114;53.404;-1.502;2023-05-11T02:35:37;100462.88;;;12.14;100.00
23867;BME280;12114;53.404;-1.502;2023-05-11T02:38:30;100458.13;;;12.14;100.00
23867;BME280;12114;53.404;-1.502;2023-05-11T02:41:19;100466.91;;;12.16;100.00
23867;BME280;12114;53.404;-1.502;2023-05-11T02:44:07;100463.25;;;12.12;100.00
23867;BME280;12114;53.404;-1.502;2023-05-11T02:46:53;100471.63;;;12.12;100.00
23867;BME280;12114;53.404;-1.502;2023-05-11T02:49:39;100476.00;;;12.13;100.00
23867;BME280;12114;53.404;-1.502;2023-05-11T02:52:26;100464.50;;;12.15;100.00
23867;BME280;12114;53.404;-1.502;2023-05-11T02:55:12;100473.28;;;12.17;100.00
23867;BME280;12114;53.404;-1.502;2023-05-11T02:57:58;100473.66;;;12.15;100.00
23867;BME280;12114;53.404;-1.502;2023-05-11T03:00:42;100481.22;;;12.15;100.00
23867;BME280;12114;53.404;-1.502;2023-05-11T03:03:27;100472.94;;;12.18;100.00
23867;BME280;12114;53.404;-1.502;2023-05-11T03:06:12;100482.13;;;12.22;100.00
23867;BME280;12114;53.404;-1.502;2023-05-11T03:08:56;100479.06;;;12.27;100.00
23867;BME280;12114;53.404;-1.502;2023-05-11T03:11:41;100477.03;;;12.24;100.00
23867;BME280;12114;53.404;-1.502;2023-05-11T03:14:26;100479.00;;;12.24;100.00
23867;BME280;12114;53.404;-1.502;2023-05-11T03:17:11;100488.09;;;12.21;100.00
23867;BME280;12114;53.404;-1.502;2023-05-11T03:19:57;100488.84;;;12.18;100.00
23867;BME280;12114;53.404;-1.502;2023-05-11T03:22:43;100488.84;;;12.18;100.00
23867;BME280;12114;53.404;-1.502;2023-05-11T03:25:28;100487.50;;;12.12;100.00
23867;BME280;12114;53.404;-1.502;2023-05-11T03:28:13;100494.31;;;12.14;100.00
23867;BME280;12114;53.404;-1.502;2023-05-11T03:30:58;100490.22;;;12.08;100.00
23867;BME280;12114;53.404;-1.502;2023-05-11T03:33:42;100496.03;;;11.99;100.00
23867;BME280;12114;53.404;-1.502;2023-05-11T03:36:26;100504.00;;;12.01;100.00
23867;BME280;12114;53.404;-1.502;2023-05-11T03:39:11;100504.47;;;12.03;100.00
23867;BME280;12114;53.404;-1.502;2023-05-11T03:41:59;100505.69;;;12.05;100.00
23867;BME280;12114;53.404;-1.502;2023-05-11T03:44:45;100504.97;;;12.09;100.00
23867;BME280;12114;53.404;-1.502;2023-05-11T03:47:32;100505.38;;;12.11;100.00
23867;BME280;12114;53.404;-1.502;2023-05-11T03:50:16;100510.97;;;12.11;100.00
23867;BME280;12114;53.404;-1.502;2023-05-11T03:53:03;100514.13;;;12.09;100.00
23867;BME280;12114;53.404;-1.502;2023-05-11T03:55:48;100511.34;;;12.09;100.00
23867;BME280;12114;53.404;-1.502;2023-05-11T03:58:37;100520.94;;;12.12;100.00
23867;BME280;12114;53.404;-1.502;2023-05-11T04:01:22;100524.06;;;12.10;100.00
23867;BME280;12114;53.404;-1.502;2023-05-11T04:04:06;100523.28;;;12.10;100.00
23867;BME280;12114;53.404;-1.502;2023-05-11T04:06:50;100528.41;;;12.07;100.00
23867;BME280;12114;53.404;-1.502;2023-05-11T04:09:34;100535.22;;;12.10;100.00
23867;BME280;12114;53.404;-1.502;2023-05-11T04:12:18;100536.53;;;12.16;100.00
23867;BME280;12114;53.404;-1.502;2023-05-11T04:15:02;100526.28;;;12.20;100.00
23867;BME280;12114;53.404;-1.502;2023-05-11T04:17:47;100535.06;;;12.22;100.00
23867;BME280;12114;53.404;-1.502;2023-05-11T04:20:31;100533.75;;;12.16;100.00
23867;BME280;12114;53.404;-1.502;2023-05-11T04:23:15;100544.75;;;12.09;100.00
23867;BME280;12114;53.404;-1.502;2023-05-11T04:25:59;100537.94;;;12.07;100.00
23867;BME280;12114;53.404;-1.502;2023-05-11T04:28:43;100549.09;;;12.07;100.00
23867;BME280;12114;53.404;-1.502;2023-05-11T04:31:27;100553.03;;;12.05;100.00
23867;BME280;12114;53.404;-1.502;2023-05-11T04:34:13;100550.56;;;12.00;100.00
23867;BME280;12114;53.404;-1.502;2023-05-11T04:36:56;100551.63;;;11.96;100.00
23867;BME280;12114;53.404;-1.502;2023-05-11T04:39:40;100563.16;;;11.94;100.00
23867;BME280;12114;53.404;-1.502;2023-05-11T04:42:24;100557.59;;;11.94;100.00
23867;BME280;12114;53.404;-1.502;2023-05-11T04:45:09;100567.91;;;11.94;100.00
23867;BME280;12114;53.404;-1.502;2023-05-11T04:47:53;100576.25;;;11.94;100.00
23867;BME280;12114;53.404;-1.502;2023-05-11T04:50:37;100577.84;;;11.95;100.00
23867;BME280;12114;53.404;-1.502;2023-05-11T04:53:21;100585.47;;;11.98;100.00
23867;BME280;12114;53.404;-1.502;2023-05-11T04:56:06;100583.44;;;11.95;100.00
23867;BME280;12114;53.404;-1.502;2023-05-11T04:58:50;100581.03;;;11.93;100.00
23867;BME280;12114;53.404;-1.502;2023-05-11T05:01:34;100584.25;;;11.95;100.00
23867;BME280;12114;53.404;-1.502;2023-05-11T05:04:18;100587.47;;;11.97;100.00
23867;BME280;12114;53.404;-1.502;2023-05-11T05:07:02;100582.66;;;11.94;100.00
23867;BME280;12114;53.404;-1.502;2023-05-11T05:09:46;100591.34;;;11.93;100.00
23867;BME280;12114;53.404;-1.502;2023-05-11T05:12:30;100599.34;;;11.94;100.00
23867;BME280;12114;53.404;-1.502;2023-05-11T05:15:14;100604.09;;;11.94;100.00
23867;BME280;12114;53.404;-1.502;2023-05-11T05:17:58;100611.28;;;11.95;100.00
23867;BME280;12114;53.404;-1.502;2023-05-11T05:20:42;100607.72;;;11.94;100.00
23867;BME280;12114;53.404;-1.502;2023-05-11T05:23:26;100612.09;;;11.95;100.00
23867;BME280;12114;53.404;-1.502;2023-05-11T05:26:10;100612.47;;;11.94;100.00
23867;BME280;12114;53.404;-1.502;2023-05-11T05:28:54;100607.25;;;11.92;100.00
23867;BME280;12114;53.404;-1.502;2023-05-11T05:31:38;100609.38;;;11.99;100.00
23867;BME280;12114;53.404;-1.502;2023-05-11T05:34:22;100611.09;;;12.03;100.00
23867;BME280;12114;53.404;-1.502;2023-05-11T05:37:06;100629.78;;;12.03;100.00
23867;BME280;12114;53.404;-1.502;2023-05-11T05:39:50;100629.41;;;12.04;100.00
23867;BME280;12114;53.404;-1.502;2023-05-11T05:42:34;100631.75;;;12.02;100.00
23867;BME280;12114;53.404;-1.502;2023-05-11T05:45:18;100634.16;;;12.04;100.00
23867;BME280;12114;53.404;-1.502;2023-05-11T05:48:02;100635.34;;;12.03;100.00
23867;BME280;12114;53.404;-1.502;2023-05-11T05:50:48;100645.28;;;12.04;100.00
23867;BME280;12114;53.404;-1.502;2023-05-11T05:53:32;100648.06;;;12.04;100.00
23867;BME280;12114;53.404;-1.502;2023-05-11T05:56:16;100654.03;;;12.02;100.00
23867;BME280;12114;53.404;-1.502;2023-05-11T05:59:00;100654.84;;;12.03;100.00
23867;BME280;12114;53.404;-1.502;2023-05-11T06:01:45;100659.31;;;12.07;100.00
23867;BME280;12114;53.404;-1.502;2023-05-11T06:04:30;100667.00;;;12.14;100.00
23867;BME280;12114;53.404;-1.502;2023-05-11T06:07:14;100670.31;;;12.20;100.00
23867;BME280;12114;53.404;-1.502;2023-05-11T06:09:58;100670.78;;;12.22;100.00
23867;BME280;12114;53.404;-1.502;2023-05-11T06:12:43;100674.81;;;12.24;100.00
23867;BME280;12114;53.404;-1.502;2023-05-11T06:15:27;100673.63;;;12.25;100.00
23867;BME280;12114;53.404;-1.502;2023-05-11T06:18:11;100672.53;;;12.30;100.00
23867;BME280;12114;53.404;-1.502;2023-05-11T06:20:55;100677.72;;;12.31;100.00
23867;BME280;12114;53.404;-1.502;2023-05-11T06:23:39;100687.72;;;12.32;100.00
23867;BME280;12114;53.404;-1.502;2023-05-11T06:26:23;100680.19;;;12.33;100.00
23867;BME280;12114;53.404;-1.502;2023-05-11T06:29:07;100687.41;;;12.37;100.00
23867;BME280;12114;53.404;-1.502;2023-05-11T06:31:51;100687.50;;;12.41;100.00
23867;BME280;12114;53.404;-1.502;2023-05-11T06:34:37;100686.03;;;12.47;100.00
23867;BME280;12114;53.404;-1.502;2023-05-11T06:37:22;100680.72;;;12.57;100.00
23867;BME280;12114;53.404;-1.502;2023-05-11T06:40:06;100683.72;;;12.68;100.00
23867;BME280;12114;53.404;-1.502;2023-05-11T06:42:51;100680.56;;;12.70;100.00
23867;BME280;12114;53.404;-1.502;2023-05-11T06:45:35;100687.38;;;12.72;100.00
23867;BME280;12114;53.404;-1.502;2023-05-11T06:48:19;100686.22;;;12.73;100.00
23867;BME280;12114;53.404;-1.502;2023-05-11T06:51:09;100678.38;;;12.79;100.00
23867;BME280;12114;53.404;-1.502;2023-05-11T06:53:53;100679.59;;;12.81;100.00
23867;BME280;12114;53.404;-1.502;2023-05-11T06:56:37;100684.44;;;12.84;100.00
23867;BME280;12114;53.404;-1.502;2023-05-11T06:59:21;100684.13;;;12.89;100.00
23867;BME280;12114;53.404;-1.502;2023-05-11T07:02:05;100684.72;;;12.98;100.00
23867;BME280;12114;53.404;-1.502;2023-05-11T07:04:49;100680.75;;;12.99;100.00
23867;BME280;12114;53.404;-1.502;2023-05-11T07:07:33;100680.84;;;13.03;100.00
23867;BME280;12114;53.404;-1.502;2023-05-11T07:10:17;100680.63;;;13.11;100.00
23867;BME280;12114;53.404;-1.502;2023-05-11T07:13:01;100685.53;;;13.18;100.00
23867;BME280;12114;53.404;-1.502;2023-05-11T07:15:45;100689.63;;;13.24;100.00
23867;BME280;12114;53.404;-1.502;2023-05-11T07:18:29;100684.88;;;13.25;100.00
23867;BME280;12114;53.404;-1.502;2023-05-11T07:21:14;100679.78;;;13.30;100.00
23867;BME280;12114;53.404;-1.502;2023-05-11T07:23:59;100681.44;;;13.35;100.00
23867;BME280;12114;53.404;-1.502;2023-05-11T07:26:43;100686.59;;;13.33;100.00
23867;BME280;12114;53.404;-1.502;2023-05-11T07:29:27;100688.34;;;13.41;100.00
23867;BME280;12114;53.404;-1.502;2023-05-11T07:32:11;100684.19;;;13.54;100.00
23867;BME280;12114;53.404;-1.502;2023-05-11T07:34:55;100691.56;;;13.65;100.00
23867;BME280;12114;53.404;-1.502;2023-05-11T07:37:40;100682.69;;;13.83;100.00
23867;BME280;12114;53.404;-1.502;2023-05-11T07:40:25;100681.50;;;13.84;100.00
23867;BME280;12114;53.404;-1.502;2023-05-11T07:43:08;100682.84;;;13.93;100.00
23867;BME280;12114;53.404;-1.502;2023-05-11T07:45:52;100682.28;;;14.07;100.00
23867;BME280;12114;53.404;-1.502;2023-05-11T07:48:37;100686.44;;;14.20;100.00
23867;BME280;12114;53.404;-1.502;2023-05-11T07:51:21;100681.47;;;14.33;100.00
23867;BME280;12114;53.404;-1.502;2023-05-11T07:54:05;100680.34;;;14.37;100.00
23867;BME280;12114;53.404;-1.502;2023-05-11T07:56:49;100688.28;;;14.35;100.00
23867;BME280;12114;53.404;-1.502;2023-05-11T07:59:33;100688.44;;;14.46;100.00
23867;BME280;12114;53.404;-1.502;2023-05-11T08:02:17;100690.09;;;14.80;100.00
23867;BME280;12114;53.404;-1.502;2023-05-11T08:05:05;100691.88;;;14.95;100.00
23867;BME280;12114;53.404;-1.502;2023-05-11T08:07:49;100700.81;;;15.08;100.00
23867;BME280;12114;53.404;-1.502;2023-05-11T08:10:34;100703.34;;;15.20;100.00
23867;BME280;12114;53.404;-1.502;2023-05-11T08:13:18;100702.06;;;15.14;100.00
23867;BME280;12114;53.404;-1.502;2023-05-11T08:16:02;100703.47;;;15.30;100.00
23867;BME280;12114;53.404;-1.502;2023-05-11T08:18:47;100709.19;;;15.45;100.00
23867;BME280;12114;53.404;-1.502;2023-05-11T08:21:31;100705.72;;;15.55;100.00
23867;BME280;12114;53.404;-1.502;2023-05-11T08:24:16;100708.22;;;15.63;100.00
23867;BME280;12114;53.404;-1.502;2023-05-11T08:27:00;100718.72;;;15.73;100.00
23867;BME280;12114;53.404;-1.502;2023-05-11T08:29:44;100704.75;;;15.77;100.00
23867;BME280;12114;53.404;-1.502;2023-05-11T08:32:28;100707.13;;;15.78;100.00
23867;BME280;12114;53.404;-1.502;2023-05-11T08:35:12;100706.94;;;16.01;100.00
23867;BME280;12114;53.404;-1.502;2023-05-11T08:37:56;100703.91;;;15.73;100.00
23867;BME280;12114;53.404;-1.502;2023-05-11T08:40:40;100715.72;;;15.52;100.00
23867;BME280;12114;53.404;-1.502;2023-05-11T08:43:36;100715.03;;;15.62;100.00
23867;BME280;12114;53.404;-1.502;2023-05-11T08:46:23;100718.81;;;15.88;100.00
23867;BME280;12114;53.404;-1.502;2023-05-11T08:49:10;100714.53;;;16.01;100.00
23867;BME280;12114;53.404;-1.502;2023-05-11T08:51:54;100713.50;;;16.26;100.00
23867;BME280;12114;53.404;-1.502;2023-05-11T08:54:38;100716.13;;;15.98;100.00
23867;BME280;12114;53.404;-1.502;2023-05-11T08:57:22;100719.53;;;15.74;100.00
23867;BME280;12114;53.404;-1.502;2023-05-11T09:00:08;100714.97;;;15.59;100.00
23867;BME280;12114;53.404;-1.502;2023-05-11T09:02:52;100723.78;;;15.61;100.00
23867;BME280;12114;53.404;-1.502;2023-05-11T09:05:37;100730.53;;;15.53;100.00
23867;BME280;12114;53.404;-1.502;2023-05-11T09:08:22;100728.19;;;15.58;100.00
23867;BME280;12114;53.404;-1.502;2023-05-11T09:11:06;100732.59;;;15.63;100.00
23867;BME280;12114;53.404;-1.502;2023-05-11T09:13:51;100730.84;;;15.88;100.00
23867;BME280;12114;53.404;-1.502;2023-05-11T09:16:35;100733.97;;;15.79;100.00
23867;BME280;12114;53.404;-1.502;2023-05-11T09:19:19;100739.84;;;15.64;100.00
23867;BME280;12114;53.404;-1.502;2023-05-11T09:22:05;100741.50;;;15.72;100.00
23867;BME280;12114;53.404;-1.502;2023-05-11T09:24:49;100735.78;;;15.58;100.00
23867;BME280;12114;53.404;-1.502;2023-05-11T09:27:33;100745.75;;;15.55;100.00
23867;BME280;12114;53.404;-1.502;2023-05-11T09:33:02;100737.97;;;15.42;100.00
23867;BME280;12114;53.404;-1.502;2023-05-11T09:35:46;100743.38;;;15.24;100.00
23867;BME280;12114;53.404;-1.502;2023-05-11T09:38:30;100742.91;;;15.18;100.00
23867;BME280;12114;53.404;-1.502;2023-05-11T09:41:18;100745.28;;;14.83;100.00
23867;BME280;12114;53.404;-1.502;2023-05-11T09:44:26;100749.03;;;14.64;100.00
23867;BME280;12114;53.404;-1.502;2023-05-11T09:47:15;100750.00;;;14.49;100.00
23867;BME280;12114;53.404;-1.502;2023-05-11T09:50:14;100761.22;;;14.27;100.00
23867;BME280;12114;53.404;-1.502;2023-05-11T09:52:58;100760.66;;;14.17;100.00
23867;BME280;12114;53.404;-1.502;2023-05-11T09:55:54;100760.81;;;14.02;100.00
23867;BME280;12114;53.404;-1.502;2023-05-11T09:58:53;100766.69;;;13.51;100.00
23867;BME280;12114;53.404;-1.502;2023-05-11T10:01:37;100769.31;;;13.22;100.00
23867;BME280;12114;53.404;-1.502;2023-05-11T10:04:28;100784.66;;;13.12;100.00
23867;BME280;12114;53.404;-1.502;2023-05-11T10:10:08;100789.44;;;13.11;100.00
23867;BME280;12114;53.404;-1.502;2023-05-11T10:12:57;100790.25;;;13.12;100.00
23867;BME280;12114;53.404;-1.502;2023-05-11T10:15:42;100792.41;;;13.03;100.00
23867;BME280;12114;53.404;-1.502;2023-05-11T10:18:26;100797.50;;;13.17;100.00
23867;BME280;12114;53.404;-1.502;2023-05-11T10:21:14;100791.06;;;13.12;100.00
23867;BME280;12114;53.404;-1.502;2023-05-11T10:23:58;100808.16;;;13.11;100.00
23867;BME280;12114;53.404;-1.502;2023-05-11T10:26:43;100803.94;;;13.01;100.00
23867;BME280;12114;53.404;-1.502;2023-05-11T10:29:28;100803.34;;;12.92;100.00
23867;BME280;12114;53.404;-1.502;2023-05-11T10:32:14;100804.97;;;12.93;100.00
23867;BME280;12114;53.404;-1.502;2023-05-11T10:35:00;100811.44;;;12.97;100.00
23867;BME280;12114;53.404;-1.502;2023-05-11T10:37:45;100815.97;;;13.05;100.00
23867;BME280;12114;53.404;-1.502;2023-05-11T10:40:35;100815.53;;;13.03;100.00
23867;BME280;12114;53.404;-1.502;2023-05-11T10:46:43;100822.47;;;13.09;100.00
23867;BME280;12114;53.404;-1.502;2023-05-11T11:01:40;100833.34;;;13.14;100.00
23867;BME280;12114;53.404;-1.502;2023-05-11T11:04:40;100847.22;;;13.30;100.00
23867;BME280;12114;53.404;-1.502;2023-05-11T11:07:25;100847.56;;;13.29;100.00
23867;BME280;12114;53.404;-1.502;2023-05-11T11:10:09;100846.84;;;13.32;100.00
23867;BME280;12114;53.404;-1.502;2023-05-11T11:13:11;100851.19;;;13.29;100.00
23867;BME280;12114;53.404;-1.502;2023-05-11T11:18:40;100843.91;;;12.90;100.00
23867;BME280;12114;53.404;-1.502;2023-05-11T11:21:38;100838.34;;;12.55;100.00
23867;BME280;12114;53.404;-1.502;2023-05-11T11:30:29;100839.06;;;12.52;100.00
23867;BME280;12114;53.404;-1.502;2023-05-11T11:35:57;100829.19;;;12.39;100.00
23867;BME280;12114;53.404;-1.502;2023-05-11T11:38:57;100830.41;;;12.57;100.00
23867;BME280;12114;53.404;-1.502;2023-05-11T11:41:43;100831.00;;;12.82;100.00
23867;BME280;12114;53.404;-1.502;2023-05-11T11:44:27;100833.63;;;12.75;100.00
23867;BME280;12114;53.404;-1.502;2023-05-11T11:47:18;100833.09;;;12.69;100.00
23867;BME280;12114;53.404;-1.502;2023-05-11T11:50:10;100829.28;;;12.77;100.00
23867;BME280;12114;53.404;-1.502;2023-05-11T11:52:56;100834.78;;;12.74;100.00
23867;BME280;12114;53.404;-1.502;2023-05-11T11:55:50;100827.69;;;12.95;100.00
23867;BME280;12114;53.404;-1.502;2023-05-11T12:01:29;100839.16;;;13.25;100.00
23867;BME280;12114;53.404;-1.502;2023-05-11T12:04:44;100838.63;;;13.39;100.00
23867;BME280;12114;53.404;-1.502;2023-05-11T12:07:33;100848.81;;;13.50;100.00
23867;BME280;12114;53.404;-1.502;2023-05-11T12:10:21;100837.69;;;13.31;100.00
23867;BME280;12114;53.404;-1.502;2023-05-11T12:13:08;100847.22;;;13.30;100.00
23867;BME280;12114;53.404;-1.502;2023-05-11T12:18:57;100848.97;;;13.77;100.00
23867;BME280;12114;53.404;-1.502;2023-05-11T12:21:43;100842.41;;;13.88;100.00
23867;BME280;12114;53.404;-1.502;2023-05-11T12:24:28;100846.69;;;14.28;100.00
23867;BME280;12114;53.404;-1.502;2023-05-11T12:27:15;100844.53;;;14.40;100.00
23867;BME280;12114;53.404;-1.502;2023-05-11T12:30:00;100828.16;;;14.65;100.00
23867;BME280;12114;53.404;-1.502;2023-05-11T12:32:44;100829.22;;;15.13;100.00
23867;BME280;12114;53.404;-1.502;2023-05-11T12:35:32;100823.97;;;15.41;100.00
23867;BME280;12114;53.404;-1.502;2023-05-11T12:38:17;100813.72;;;15.19;100.00
23867;BME280;12114;53.404;-1.502;2023-05-11T12:41:00;100815.31;;;15.20;100.00
23867;BME280;12114;53.404;-1.502;2023-05-11T12:43:44;100815.09;;;15.65;100.00
23867;BME280;12114;53.404;-1.502;2023-05-11T12:46:28;100818.41;;;15.74;100.00
23867;BME280;12114;53.404;-1.502;2023-05-11T12:49:21;100818.03;;;16.20;100.00
23867;BME280;12114;53.404;-1.502;2023-05-11T12:52:07;100819.19;;;16.15;100.00
23867;BME280;12114;53.404;-1.502;2023-05-11T12:54:53;100811.00;;;16.44;100.00
23867;BME280;12114;53.404;-1.502;2023-05-11T12:57:42;100816.66;;;16.47;100.00
23867;BME280;12114;53.404;-1.502;2023-05-11T13:00:26;100810.09;;;16.29;100.00
23867;BME280;12114;53.404;-1.502;2023-05-11T13:03:12;100806.16;;;15.93;100.00
23867;BME280;12114;53.404;-1.502;2023-05-11T13:06:07;100806.47;;;15.84;100.00
23867;BME280;12114;53.404;-1.502;2023-05-11T13:08:51;100800.78;;;16.18;100.00
23867;BME280;12114;53.404;-1.502;2023-05-11T13:11:35;100810.44;;;16.24;100.00
23867;BME280;12114;53.404;-1.502;2023-05-11T13:14:19;100810.81;;;16.70;100.00
23867;BME280;12114;53.404;-1.502;2023-05-11T13:17:03;100795.16;;;16.65;100.00
23867;BME280;12114;53.404;-1.502;2023-05-11T13:19:48;100801.72;;;16.87;100.00
23867;BME280;12114;53.404;-1.502;2023-05-11T13:22:31;100805.44;;;17.16;100.00
23867;BME280;12114;53.404;-1.502;2023-05-11T13:25:18;100799.50;;;16.56;100.00
23867;BME280;12114;53.404;-1.502;2023-05-11T13:28:02;100800.53;;;16.37;100.00
23867;BME280;12114;53.404;-1.502;2023-05-11T13:30:47;100792.44;;;16.25;100.00
23867;BME280;12114;53.404;-1.502;2023-05-11T13:33:33;100803.56;;;15.74;100.00
23867;BME280;12114;53.404;-1.502;2023-05-11T13:36:17;100808.38;;;15.73;100.00
23867;BME280;12114;53.404;-1.502;2023-05-11T13:39:01;100810.97;;;15.93;100.00
23867;BME280;12114;53.404;-1.502;2023-05-11T13:41:45;100816.72;;;15.70;100.00
23867;BME280;12114;53.404;-1.502;2023-05-11T13:44:29;100812.94;;;15.89;100.00
23867;BME280;12114;53.404;-1.502;2023-05-11T13:47:14;100811.06;;;16.03;100.00
23867;BME280;12114;53.404;-1.502;2023-05-11T13:49:58;100807.47;;;15.62;100.00
23867;BME280;12114;53.404;-1.502;2023-05-11T13:52:42;100806.69;;;15.69;100.00
23867;BME280;12114;53.404;-1.502;2023-05-11T13:55:27;100808.72;;;15.68;100.00
23867;BME280;12114;53.404;-1.502;2023-05-11T13:58:11;100815.22;;;16.20;100.00
23867;BME280;12114;53.404;-1.502;2023-05-11T14:00:55;100819.22;;;16.19;100.00
23867;BME280;12114;53.404;-1.502;2023-05-11T14:03:40;100817.81;;;16.42;100.00
23867;BME280;12114;53.404;-1.502;2023-05-11T14:06:24;100829.72;;;16.80;100.00
23867;BME280;12114;53.404;-1.502;2023-05-11T14:09:08;100834.63;;;16.97;100.00
23867;BME280;12114;53.404;-1.502;2023-05-11T14:11:52;100838.72;;;17.10;100.00
23867;BME280;12114;53.404;-1.502;2023-05-11T14:14:37;100831.06;;;17.04;100.00
23867;BME280;12114;53.404;-1.502;2023-05-11T14:17:20;100835.00;;;16.92;100.00
23867;BME280;12114;53.404;-1.502;2023-05-11T14:20:05;100824.59;;;16.41;100.00
23867;BME280;12114;53.404;-1.502;2023-05-11T14:22:49;100840.59;;;16.37;100.00
23867;BME280;12114;53.404;-1.502;2023-05-11T14:25:34;100838.03;;;16.66;100.00
23867;BME280;12114;53.404;-1.502;2023-05-11T14:28:19;100831.88;;;16.50;100.00
23867;BME280;12114;53.404;-1.502;2023-05-11T14:31:03;100834.13;;;16.30;100.00
23867;BME280;12114;53.404;-1.502;2023-05-11T14:33:48;100834.56;;;16.35;100.00
23867;BME280;12114;53.404;-1.502;2023-05-11T14:36:32;100835.88;;;16.49;100.00
23867;BME280;12114;53.404;-1.502;2023-05-11T14:39:16;100838.38;;;16.57;100.00
23867;BME280;12114;53.404;-1.502;2023-05-11T14:42:00;100841.22;;;16.61;100.00
23867;BME280;12114;53.404;-1.502;2023-05-11T14:44:44;100843.66;;;16.62;100.00
23867;BME280;12114;53.404;-1.502;2023-05-11T14:47:29;100838.72;;;16.05;100.00
23867;BME280;12114;53.404;-1.502;2023-05-11T14:50:13;100848.72;;;16.06;100.00
23867;BME280;12114;53.404;-1.502;2023-05-11T14:52:57;100849.94;;;16.08;100.00